Aviation Digital Data Service (ADDS)

Output produced by TAFs form (1655 UTC 25 July 2017)
found at http://aviationweather.gov/adds/tafs/
 
KFMN 251124Z 2512/2612 09006KT P6SM BKN100 
     FM251800 20009KT P6SM VCSH BKN070 
     FM252200 26011KT P6SM VCTS BKN080CB 
     FM260100 27009KT P6SM VCSH BKN070 
     FM260600 31005KT P6SM BKN100